Time;durP1;ratioP1;P1;durP2;ratioP2;P2;SDS_P1;SDS_P2;PMS_P1;PMS_P2;Temp;Humidity;BMP_temperature;BMP_pressure;BME280_temperature;BME280_humidity;BME280_pressure;Samples;Min_cycle;Max_cycle;Signal;HPM_P1;HPM_P2
2022/09/01 00:01:25;;;;;;;4.15;1.50;;;14.60;99.90;;;;;;5000940;28;20045;-57
2022/09/01 00:03:58;;;;;;;2.50;1.40;;;14.60;99.90;;;;;;5000605;28;20065;-57
2022/09/01 00:06:25;;;;;;;2.20;1.30;;;14.60;99.90;;;;;;5006642;28;20284;-57
2022/09/01 00:08:52;;;;;;;2.70;1.33;;;14.60;99.90;;;;;;5005178;28;20082;-57
2022/09/01 00:11:19;;;;;;;1.90;1.05;;;14.60;99.90;;;;;;5002287;28;20501;-57
2022/09/01 00:13:46;;;;;;;1.60;1.10;;;14.60;99.90;;;;;;5004147;28;20084;-57
2022/09/01 00:16:15;;;;;;;3.20;1.20;;;14.50;99.90;;;;;;5004044;28;20045;-57
2022/09/01 00:18:42;;;;;;;1.70;1.10;;;14.50;99.90;;;;;;5003087;28;20495;-57
2022/09/01 00:21:09;;;;;;;3.40;1.40;;;14.50;99.90;;;;;;5003969;28;20516;-58
2022/09/01 00:23:36;;;;;;;2.15;1.30;;;14.50;99.90;;;;;;4986070;28;20758;-58
2022/09/01 00:26:02;;;;;;;1.65;1.15;;;14.50;99.90;;;;;;5002952;28;20045;-57
2022/09/01 00:28:28;;;;;;;5.13;1.38;;;14.40;99.90;;;;;;5003876;28;20270;-57
2022/09/01 00:30:54;;;;;;;2.70;1.10;;;14.30;99.90;;;;;;5003714;28;20057;-57
2022/09/01 00:33:19;;;;;;;4.45;1.17;;;14.40;99.90;;;;;;5003595;28;20048;-57
2022/09/01 00:35:46;;;;;;;3.28;1.17;;;14.40;99.90;;;;;;4985494;28;20092;-57
2022/09/01 00:38:12;;;;;;;3.22;1.10;;;14.40;99.90;;;;;;5003690;28;20041;-57
2022/09/01 00:40:38;;;;;;;2.47;1.10;;;14.40;99.90;;;;;;5002639;28;20060;-58
2022/09/01 00:43:35;;;;;;;2.35;1.20;;;14.30;99.90;;;;;;5003497;28;20041;-58
2022/09/01 00:46:01;;;;;;;2.70;1.30;;;14.20;99.90;;;;;;5003878;28;20173;-57
2022/09/01 00:48:27;;;;;;;1.55;1.10;;;14.20;99.90;;;;;;5003093;28;20038;-57
2022/09/01 00:50:53;;;;;;;2.00;1.20;;;14.30;99.90;;;;;;5003158;28;20057;-57
2022/09/01 00:53:18;;;;;;;2.05;1.10;;;14.20;99.90;;;;;;5003435;28;20042;-57
2022/09/01 00:55:44;;;;;;;2.00;1.20;;;14.30;99.90;;;;;;5002207;28;20045;-57
2022/09/01 00:58:10;;;;;;;2.80;1.23;;;14.30;99.90;;;;;;4985665;28;20065;-57
2022/09/01 01:00:39;;;;;;;2.83;1.23;;;14.00;99.90;;;;;;5003056;28;20103;-58
2022/09/01 01:03:13;;;;;;;2.22;1.30;;;14.30;99.90;;;;;;5002932;28;20038;-58
2022/09/01 01:05:47;;;;;;;4.57;1.30;;;14.40;99.90;;;;;;5005422;28;20041;-57
2022/09/01 01:08:20;;;;;;;2.30;1.20;;;14.40;99.90;;;;;;5011673;28;20054;-58
2022/09/01 01:10:46;;;;;;;2.65;1.30;;;14.50;99.90;;;;;;5036111;23;20064;-58
2022/09/01 01:13:14;;;;;;;2.13;1.30;;;14.40;99.90;;;;;;5033625;28;20041;-58
2022/09/01 01:15:42;;;;;;;2.00;1.27;;;14.50;99.90;;;;;;5050830;28;20570;-57
2022/09/01 01:18:13;;;;;;;2.35;1.30;;;14.40;99.90;;;;;;5062068;28;20052;-58
2022/09/01 01:23:27;;;;;;;3.03;1.15;;;14.30;99.90;;;;;;5062482;28;20049;-58
2022/09/01 01:25:57;;;;;;;2.25;1.30;;;14.40;99.90;;;;;;5044063;28;20056;-58
2022/09/01 01:28:24;;;;;;;2.33;1.30;;;14.50;99.90;;;;;;5062828;28;20651;-58
2022/09/01 01:30:53;;;;;;;2.03;1.30;;;14.40;99.90;;;;;;5062123;28;20089;-57
2022/09/01 01:33:21;;;;;;;1.92;1.23;;;14.30;99.90;;;;;;5044532;28;20102;-58
2022/09/01 01:35:49;;;;;;;3.03;1.30;;;14.20;99.90;;;;;;5044065;28;20494;-57
2022/09/01 01:38:15;;;;;;;1.80;1.30;;;14.20;99.90;;;;;;5062368;28;20094;-57
2022/09/01 01:40:41;;;;;;;1.88;1.30;;;14.10;99.90;;;;;;5042992;28;20475;-58
2022/09/01 01:43:07;;;;;;;2.67;1.30;;;14.00;99.90;;;;;;5062526;28;20068;-58
2022/09/01 01:45:33;;;;;;;2.05;1.40;;;13.90;99.90;;;;;;5062544;28;20533;-58
2022/09/01 01:48:04;;;;;;;2.20;1.30;;;13.90;99.90;;;;;;5061479;28;20040;-58
2022/09/01 01:50:34;;;;;;;1.90;1.35;;;14.00;99.90;;;;;;5062351;28;20044;-58
2022/09/01 01:53:01;;;;;;;3.90;1.27;;;14.00;99.90;;;;;;5062425;28;20549;-58
2022/09/01 01:55:29;;;;;;;2.22;1.30;;;14.10;99.90;;;;;;5060998;28;20135;-58
2022/09/01 01:57:57;;;;;;;2.00;1.40;;;14.10;99.90;;;;;;5061701;28;20052;-58
2022/09/01 02:00:27;;;;;;;3.78;1.70;;;14.10;99.90;;;;;;5061887;28;20048;-58
2022/09/01 02:02:53;;;;;;;3.20;1.45;;;14.10;99.90;;;;;;5060923;28;20136;-58
2022/09/01 02:05:25;;;;;;;3.55;1.63;;;14.20;99.90;;;;;;5057916;28;20071;-58
2022/09/01 02:07:58;;;;;;;3.08;1.40;;;14.20;99.90;;;;;;5041726;28;20045;-57
2022/09/01 02:10:30;;;;;;;2.28;1.70;;;14.00;99.90;;;;;;5040122;28;20061;-58
2022/09/01 02:13:03;;;;;;;3.75;1.38;;;14.10;99.90;;;;;;5041474;28;20045;-58
2022/09/01 02:15:42;;;;;;;2.47;1.27;;;14.00;99.90;;;;;;5041550;28;20045;-57
2022/09/01 02:18:15;;;;;;;2.80;1.45;;;14.00;99.90;;;;;;5041720;28;20059;-57
2022/09/01 02:20:41;;;;;;;2.03;1.38;;;14.10;99.90;;;;;;5041237;28;20052;-58
2022/09/01 02:23:11;;;;;;;4.28;1.42;;;14.00;99.90;;;;;;5041033;28;20041;-58
2022/09/01 02:25:42;;;;;;;3.75;1.73;;;14.10;99.90;;;;;;5040489;28;20045;-57
2022/09/01 02:28:14;;;;;;;4.50;1.40;;;14.00;99.90;;;;;;5041615;28;20047;-58
2022/09/01 02:30:43;;;;;;;2.05;1.30;;;14.00;99.90;;;;;;5040445;28;20049;-57
2022/09/01 02:33:10;;;;;;;2.88;1.30;;;14.00;99.90;;;;;;5040746;28;20404;-58
2022/09/01 02:35:36;;;;;;;3.60;1.60;;;14.00;99.90;;;;;;5041067;28;20094;-58
2022/09/01 02:38:05;;;;;;;2.63;1.38;;;14.00;99.90;;;;;;5040863;28;20128;-57
2022/09/01 02:40:32;;;;;;;3.55;1.55;;;14.10;99.90;;;;;;5040474;28;20128;-58
2022/09/01 02:42:59;;;;;;;2.63;1.80;;;14.00;99.90;;;;;;5022973;28;20056;-58
2022/09/01 02:45:28;;;;;;;3.47;1.48;;;14.10;99.90;;;;;;5041209;28;20063;-57
2022/09/01 02:47:56;;;;;;;4.05;1.60;;;14.10;99.90;;;;;;5040876;28;20041;-57
2022/09/01 02:50:23;;;;;;;1.88;1.50;;;14.10;99.90;;;;;;5041063;28;20088;-58
2022/09/01 02:52:51;;;;;;;2.53;1.67;;;14.10;99.90;;;;;;5040614;28;20048;-58
2022/09/01 02:55:20;;;;;;;2.78;1.60;;;14.10;99.90;;;;;;5039699;28;20045;-58
2022/09/01 02:57:50;;;;;;;2.53;1.40;;;14.00;99.90;;;;;;5040593;28;20073;-57
2022/09/01 03:00:21;;;;;;;1.98;1.60;;;14.10;99.90;;;;;;5040824;28;20049;-58
2022/09/01 03:02:51;;;;;;;2.78;1.50;;;14.00;99.90;;;;;;5040725;28;20041;-58
2022/09/01 03:05:25;;;;;;;2.90;1.80;;;13.90;99.90;;;;;;5040150;28;20513;-58
2022/09/01 03:08:03;;;;;;;2.70;1.58;;;13.80;99.90;;;;;;5040015;28;20037;-58
2022/09/01 03:10:32;;;;;;;2.47;1.70;;;14.00;99.90;;;;;;5039885;28;20041;-58
2022/09/01 03:13:00;;;;;;;2.92;1.70;;;13.90;99.90;;;;;;5040602;28;20051;-58
2022/09/01 03:15:27;;;;;;;1.70;1.20;;;13.80;99.90;;;;;;5040016;28;20045;-58
2022/09/01 03:17:53;;;;;;;3.53;1.60;;;13.80;99.90;;;;;;5040636;28;20102;-58
2022/09/01 03:20:19;;;;;;;3.65;1.80;;;13.80;99.90;;;;;;5039678;28;20814;-58
2022/09/01 03:22:46;;;;;;;4.97;1.80;;;13.80;99.90;;;;;;5021931;28;20080;-59
2022/09/01 03:25:12;;;;;;;3.40;1.70;;;13.80;99.90;;;;;;5039469;28;20051;-58
2022/09/01 03:27:38;;;;;;;3.70;1.88;;;13.80;99.90;;;;;;5040408;28;20048;-58
2022/09/01 03:30:04;;;;;;;2.58;1.80;;;13.70;99.90;;;;;;5041095;28;20053;-58
2022/09/01 03:32:31;;;;;;;1.88;1.60;;;13.70;99.90;;;;;;5039908;28;20033;-58
2022/09/01 03:34:57;;;;;;;2.72;1.73;;;13.70;99.90;;;;;;5040442;28;20437;-59
2022/09/01 03:37:23;;;;;;;3.53;1.90;;;13.70;99.90;;;;;;5006546;28;20407;-57
2022/09/01 03:39:48;;;;;;;2.55;1.83;;;13.80;99.90;;;;;;5038689;28;20037;-57
2022/09/01 03:42:22;;;;;;;3.85;1.73;;;13.70;99.90;;;;;;5040683;28;20055;-57
2022/09/01 03:44:48;;;;;;;3.13;1.90;;;13.70;99.90;;;;;;5040032;28;20779;-57
2022/09/01 03:47:15;;;;;;;2.65;1.90;;;13.70;99.90;;;;;;5044073;28;20415;-58
2022/09/01 03:49:42;;;;;;;2.53;1.80;;;13.70;99.90;;;;;;5044359;28;20051;-57
2022/09/01 03:52:09;;;;;;;3.15;1.90;;;13.60;99.90;;;;;;5044345;28;20091;-58
2022/09/01 03:54:35;;;;;;;2.55;1.90;;;13.60;99.90;;;;;;5044168;28;20132;-58
2022/09/01 03:57:01;;;;;;;2.60;1.75;;;13.70;99.90;;;;;;5042736;28;20116;-57
2022/09/01 03:59:27;;;;;;;4.95;2.08;;;13.70;99.90;;;;;;5044037;28;20434;-57
2022/09/01 04:01:53;;;;;;;2.95;1.73;;;13.60;99.90;;;;;;5044066;28;20173;-57
2022/09/01 04:04:18;;;;;;;2.40;2.00;;;13.60;99.90;;;;;;5043744;28;20469;-58
2022/09/01 04:06:45;;;;;;;5.28;2.13;;;13.70;99.90;;;;;;5043485;28;20075;-58
2022/09/01 04:09:11;;;;;;;5.07;2.15;;;13.60;99.90;;;;;;5043833;28;20047;-58
2022/09/01 04:11:38;;;;;;;4.05;2.42;;;13.60;99.90;;;;;;5043318;28;20045;-56
2022/09/01 04:14:05;;;;;;;2.83;2.00;;;13.60;99.90;;;;;;5043710;28;20083;-58
2022/09/01 04:19:24;;;;;;;4.10;2.10;;;13.90;99.90;;;;;;5043049;28;20502;-58
2022/09/01 04:21:56;;;;;;;3.30;2.38;;;13.60;99.90;;;;;;5043640;28;20140;-58
2022/09/01 04:24:23;;;;;;;5.05;1.98;;;13.70;99.90;;;;;;5043575;28;20579;-58
2022/09/01 04:26:50;;;;;;;3.28;2.30;;;13.70;99.90;;;;;;5042476;28;20060;-58
2022/09/01 04:29:23;;;;;;;5.90;2.40;;;13.70;99.90;;;;;;5025683;28;20098;-58
2022/09/01 04:31:52;;;;;;;4.90;2.55;;;13.70;99.90;;;;;;5043517;28;20044;-58
2022/09/01 04:34:21;;;;;;;3.45;2.33;;;13.70;99.90;;;;;;5042893;28;20116;-58
2022/09/01 04:36:47;;;;;;;4.75;2.38;;;13.90;99.90;;;;;;5043240;28;20049;-58
2022/09/01 04:39:13;;;;;;;4.32;2.35;;;13.90;99.90;;;;;;5043245;28;20103;-58
2022/09/01 04:41:44;;;;;;;4.55;2.40;;;13.90;99.90;;;;;;5042090;28;20380;-58
2022/09/01 04:44:12;;;;;;;4.68;2.40;;;14.00;99.90;;;;;;5042998;28;20136;-58
2022/09/01 04:46:45;;;;;;;6.80;2.67;;;13.90;99.90;;;;;;5042404;28;20045;-57
2022/09/01 04:49:14;;;;;;;4.53;2.47;;;14.00;99.90;;;;;;5042234;28;20083;-58
2022/09/01 04:51:42;;;;;;;10.75;3.05;;;14.00;99.90;;;;;;5042847;28;20045;-58
2022/09/01 04:54:11;;;;;;;4.38;2.47;;;14.00;99.90;;;;;;5043396;28;20140;-58
2022/09/01 04:56:37;;;;;;;3.83;2.40;;;14.00;99.90;;;;;;5040827;28;20091;-57
2022/09/01 04:59:05;;;;;;;3.92;2.72;;;14.00;99.90;;;;;;5043304;28;20045;-58
2022/09/01 05:01:41;;;;;;;3.63;2.67;;;14.10;99.90;;;;;;5044017;28;20402;-58
2022/09/01 05:04:28;;;;;;;3.30;2.30;;;14.00;99.90;;;;;;5042182;28;20056;-58
2022/09/01 05:06:58;;;;;;;3.90;2.45;;;14.00;99.90;;;;;;5023444;28;20135;-58
2022/09/01 05:09:25;;;;;;;4.25;2.80;;;14.00;99.90;;;;;;5042127;28;20041;-59
2022/09/01 05:11:51;;;;;;;5.13;3.10;;;14.10;99.90;;;;;;5042065;28;20044;-58
2022/09/01 05:14:21;;;;;;;4.63;2.40;;;14.10;99.90;;;;;;5042821;28;20064;-58
2022/09/01 05:16:47;;;;;;;4.93;2.55;;;14.00;99.90;;;;;;5041759;28;20045;-58
2022/09/01 05:19:13;;;;;;;3.38;2.88;;;14.00;99.90;;;;;;5042455;28;20045;-59
2022/09/01 05:21:44;;;;;;;4.18;2.80;;;14.00;99.90;;;;;;5042449;28;20060;-58
2022/09/01 05:24:17;;;;;;;5.18;2.80;;;14.00;99.90;;;;;;5042183;28;20072;-59
2022/09/01 05:26:46;;;;;;;3.40;2.50;;;14.10;99.90;;;;;;5041950;28;20049;-58
2022/09/01 05:29:14;;;;;;;3.63;2.38;;;14.00;99.90;;;;;;5024738;28;20083;-59
2022/09/01 05:31:42;;;;;;;5.88;2.33;;;14.00;99.90;;;;;;5041819;28;20110;-58
2022/09/01 05:34:08;;;;;;;3.78;2.17;;;13.90;99.90;;;;;;5024461;28;20080;-58
2022/09/01 05:36:36;;;;;;;4.35;2.20;;;14.00;99.90;;;;;;5042098;28;20075;-59
2022/09/01 05:39:04;;;;;;;3.20;2.15;;;14.10;99.90;;;;;;5042659;28;20129;-58
2022/09/01 05:41:32;;;;;;;3.88;2.50;;;14.00;99.90;;;;;;5041362;28;20041;-58
2022/09/01 05:43:58;;;;;;;4.80;2.63;;;14.10;99.90;;;;;;5041956;28;20172;-58
2022/09/01 05:46:26;;;;;;;3.35;2.30;;;14.10;99.90;;;;;;5042310;28;20127;-58
2022/09/01 05:48:53;;;;;;;4.72;2.70;;;14.20;99.90;;;;;;5041314;28;20045;-58
2022/09/01 05:51:26;;;;;;;3.45;2.65;;;14.20;99.90;;;;;;5042166;28;20072;-58
2022/09/01 05:53:57;;;;;;;3.05;2.38;;;14.10;99.90;;;;;;5041807;28;20056;-57
2022/09/01 05:56:25;;;;;;;4.88;2.45;;;14.30;99.90;;;;;;5023251;28;20476;-58
2022/09/01 05:58:51;;;;;;;4.50;2.50;;;14.20;99.90;;;;;;5041744;28;20369;-57
2022/09/01 06:01:25;;;;;;;5.20;2.25;;;14.30;99.90;;;;;;5041832;28;20102;-57
2022/09/01 06:03:53;;;;;;;4.30;2.40;;;14.40;99.90;;;;;;5040880;28;20679;-57
2022/09/01 06:06:49;;;;;;;4.18;2.42;;;14.40;99.90;;;;;;5023295;28;20060;-58
2022/09/01 06:09:17;;;;;;;;;;;14.60;99.90;;;;;;5027946;28;20107;-58
2022/09/01 06:11:46;;;;;;;3.15;2.10;;;14.60;99.90;;;;;;5040775;28;19920;-57
2022/09/01 06:14:14;;;;;;;3.83;2.40;;;14.70;99.90;;;;;;5041618;28;20040;-58
2022/09/01 06:16:41;;;;;;;4.93;2.35;;;14.70;99.90;;;;;;5041187;28;20041;-57
2022/09/01 06:19:07;;;;;;;2.78;2.17;;;14.80;99.90;;;;;;5041380;28;20053;-58
2022/09/01 06:21:33;;;;;;;6.53;2.20;;;14.70;99.90;;;;;;5041779;28;20049;-59
2022/09/01 06:23:58;;;;;;;3.72;2.10;;;14.80;99.90;;;;;;5040828;28;20045;-58
2022/09/01 06:26:30;;;;;;;4.85;2.20;;;14.90;99.90;;;;;;5040817;28;20111;-58
2022/09/01 06:29:02;;;;;;;3.10;2.03;;;15.00;99.90;;;;;;5041248;28;20136;-58
2022/09/01 06:31:32;;;;;;;2.38;1.80;;;14.90;99.90;;;;;;5040760;28;20077;-59
2022/09/01 06:34:02;;;;;;;5.20;2.38;;;15.00;99.90;;;;;;5041287;28;20044;-58
2022/09/01 06:36:31;;;;;;;3.60;2.60;;;15.00;99.90;;;;;;5041499;28;20055;-59
2022/09/01 06:39:00;;;;;;;4.43;2.53;;;15.10;99.90;;;;;;5040597;28;20488;-58
2022/09/01 06:41:27;;;;;;;6.50;2.30;;;15.10;99.90;;;;;;5040490;28;20049;-58
2022/09/01 06:43:53;;;;;;;4.05;2.08;;;15.10;99.90;;;;;;5041020;28;20045;-58
2022/09/01 06:46:20;;;;;;;4.32;2.58;;;15.20;99.90;;;;;;5040481;28;20045;-58
2022/09/01 06:48:47;;;;;;;3.72;2.50;;;15.20;99.90;;;;;;5041014;28;20454;-58
2022/09/01 06:51:19;;;;;;;2.88;2.10;;;15.20;99.90;;;;;;5041258;28;20123;-58
2022/09/01 06:53:55;;;;;;;4.25;2.38;;;15.30;99.90;;;;;;5040390;28;20059;-58
2022/09/01 06:56:21;;;;;;;3.08;2.30;;;15.40;99.90;;;;;;5040511;28;20053;-58
2022/09/01 06:58:47;;;;;;;3.70;2.08;;;15.70;99.90;;;;;;5040464;28;20047;-59
2022/09/01 07:01:18;;;;;;;4.07;2.00;;;15.90;99.90;;;;;;5040454;28;20049;-58
2022/09/01 07:03:47;;;;;;;3.42;2.40;;;16.00;99.90;;;;;;5040746;28;20048;-58
2022/09/01 07:06:14;;;;;;;3.42;2.15;;;16.00;99.90;;;;;;5022600;28;20106;-58
2022/09/01 07:08:40;;;;;;;4.57;2.00;;;16.00;99.90;;;;;;5018749;28;20377;-58
2022/09/01 07:11:08;;;;;;;4.25;2.08;;;16.10;99.90;;;;;;5020000;28;20064;-59
2022/09/01 07:13:35;;;;;;;3.30;1.77;;;16.00;99.90;;;;;;5021362;28;20038;-58
2022/09/01 07:16:05;;;;;;;4.13;2.00;;;16.10;99.90;;;;;;5003412;28;20112;-58
2022/09/01 07:18:31;;;;;;;4.65;2.40;;;16.10;99.90;;;;;;5021280;28;20610;-58
2022/09/01 07:20:58;;;;;;;2.95;2.10;;;16.10;99.90;;;;;;5020179;28;20530;-58
2022/09/01 07:23:24;;;;;;;5.00;2.38;;;16.10;99.90;;;;;;5003103;28;20245;-59
2022/09/01 07:25:54;;;;;;;4.20;2.00;;;16.10;99.90;;;;;;5019278;28;20123;-57
2022/09/01 07:28:22;;;;;;;5.88;2.20;;;16.20;99.90;;;;;;5020845;28;20495;-57
2022/09/01 07:30:52;;;;;;;5.28;3.10;;;16.20;99.90;;;;;;5020671;28;20464;-58
2022/09/01 07:33:23;;;;;;;4.40;2.20;;;16.40;99.90;;;;;;5002384;28;20041;-58
2022/09/01 07:35:53;;;;;;;4.00;1.80;;;16.60;99.90;;;;;;5020484;28;20071;-57
2022/09/01 07:38:18;;;;;;;3.15;2.50;;;17.30;99.90;;;;;;5020597;28;20510;-58
2022/09/01 07:40:45;;;;;;;6.32;3.45;;;18.10;99.90;;;;;;5018959;28;20136;-57
2022/09/01 07:43:23;;;;;;;3.40;2.45;;;18.70;99.90;;;;;;5020718;28;20042;-56
2022/09/01 07:45:58;;;;;;;3.10;1.45;;;19.40;99.90;;;;;;5020351;28;20049;-58
2022/09/01 07:48:26;;;;;;;2.60;1.77;;;19.70;99.90;;;;;;5020522;28;20042;-57
2022/09/01 07:50:55;;;;;;;3.03;1.58;;;19.90;99.90;;;;;;5020497;28;20037;-58
2022/09/01 07:53:30;;;;;;;3.08;1.40;;;20.10;99.90;;;;;;5020226;28;20099;-57
2022/09/01 07:55:58;;;;;;;2.63;1.30;;;20.50;99.90;;;;;;5019727;28;20045;-57
2022/09/01 07:58:26;;;;;;;3.50;1.33;;;20.60;99.90;;;;;;5020315;28;20053;-57
2022/09/01 08:00:54;;;;;;;3.22;1.30;;;20.70;99.90;;;;;;5019669;28;20483;-57
2022/09/01 08:03:23;;;;;;;5.43;1.80;;;20.80;99.90;;;;;;5020464;28;20056;-57
2022/09/01 08:05:52;;;;;;;8.82;2.45;;;20.80;99.90;;;;;;5027168;28;20395;-57
2022/09/01 08:08:19;;;;;;;3.80;1.90;;;20.90;99.90;;;;;;5021730;28;20045;-57
2022/09/01 08:10:45;;;;;;;2.85;1.60;;;20.90;99.90;;;;;;5039206;28;20045;-57
2022/09/01 08:13:11;;;;;;;4.40;1.60;;;21.30;99.90;;;;;;5040306;28;20040;-57
2022/09/01 08:15:41;;;;;;;4.85;1.27;;;21.20;99.90;;;;;;5040161;28;20045;-58
2022/09/01 08:18:07;;;;;;;3.72;1.50;;;21.40;99.90;;;;;;5040148;28;20041;-58
2022/09/01 08:20:38;;;;;;;3.13;1.75;;;20.90;99.90;;;;;;5040460;28;20084;-60
2022/09/01 08:23:05;;;;;;;3.67;1.60;;;21.00;99.90;;;;;;5040491;28;20111;-57
2022/09/01 08:25:33;;;;;;;3.95;1.45;;;21.20;99.90;;;;;;5038981;28;20508;-58
2022/09/01 08:27:59;;;;;;;2.65;1.85;;;21.40;99.90;;;;;;5039919;28;20033;-57
2022/09/01 08:30:26;;;;;;;2.17;1.42;;;21.30;99.90;;;;;;5039781;28;20048;-58
2022/09/01 08:32:52;;;;;;;3.85;1.58;;;21.50;99.90;;;;;;5042207;28;20460;-57
2022/09/01 08:35:18;;;;;;;4.43;2.45;;;21.50;99.90;;;;;;5043511;28;20045;-58
2022/09/01 08:37:44;;;;;;;2.67;1.63;;;21.30;99.90;;;;;;5025694;28;20127;-57
2022/09/01 08:40:16;;;;;;;2.25;1.52;;;21.10;99.90;;;;;;5042747;28;20452;-57
2022/09/01 08:43:07;;;;;;;3.95;1.92;;;21.00;99.90;;;;;;5043168;28;20110;-57
2022/09/01 08:45:37;;;;;;;5.97;1.65;;;20.70;99.90;;;;;;5042839;28;20049;-58
2022/09/01 08:48:27;;;;;;;3.55;1.50;;;20.60;99.90;;;;;;5043951;28;20052;-58
2022/09/01 08:51:12;;;;;;;2.67;1.42;;;20.40;99.90;;;;;;5042440;28;20072;-58
2022/09/01 08:53:51;;;;;;;3.13;1.50;;;20.50;99.90;;;;;;5042921;28;20132;-57
2022/09/01 08:56:18;;;;;;;2.85;1.50;;;21.00;99.90;;;;;;5042238;28;20116;-57
2022/09/01 08:58:44;;;;;;;3.10;1.27;;;21.30;99.90;;;;;;5042644;28;20056;-57
2022/09/01 09:01:36;;;;;;;3.10;1.67;;;21.90;99.90;;;;;;5042884;28;20053;-57
2022/09/01 09:04:40;;;;;;;2.38;1.35;;;22.40;99.90;;;;;;5015789;28;20056;-58
2022/09/01 09:07:43;;;;;;;3.28;1.50;;;22.70;99.90;;;;;;5041423;28;20057;-58
2022/09/01 09:10:24;;;;;;;3.40;1.98;;;22.60;99.90;;;;;;5023496;28;20088;-58
2022/09/01 09:13:19;;;;;;;3.90;1.85;;;22.50;99.90;;;;;;5042880;28;20053;-59
2022/09/01 09:15:57;;;;;;;;;;;22.70;99.90;;;;;;5020932;28;20049;-58
2022/09/01 09:18:41;;;;;;;2.10;1.20;;;22.80;99.90;;;;;;5008844;28;19987;-58
2022/09/01 09:21:19;;;;;;;4.10;1.20;;;23.00;99.90;;;;;;5050429;28;20049;-58
2022/09/01 09:23:49;;;;;;;2.13;1.08;;;23.10;99.90;;;;;;5042271;28;20382;-57
2022/09/01 09:26:16;;;;;;;3.28;1.10;;;23.20;99.90;;;;;;5041413;28;20048;-57
2022/09/01 09:28:42;;;;;;;6.28;1.25;;;23.30;99.90;;;;;;5042069;28;20045;-57
2022/09/01 09:31:42;;;;;;;4.53;1.13;;;23.60;99.90;;;;;;5042429;28;20102;-58
2022/09/01 09:34:31;;;;;;;2.45;0.80;;;23.30;99.90;;;;;;5042127;28;20063;-57
2022/09/01 09:37:23;;;;;;;37.28;2.88;;;23.40;99.90;;;;;;5015203;28;20060;-56
2022/09/01 09:40:09;;;;;;;4.28;1.20;;;23.30;99.90;;;;;;5032394;28;20063;-58
2022/09/01 09:42:38;;;;;;;1.60;0.90;;;23.50;99.90;;;;;;5042146;28;20044;-58
2022/09/01 09:45:12;;;;;;;3.67;1.02;;;23.60;99.90;;;;;;5042308;28;20136;-57
2022/09/01 09:47:43;;;;;;;3.08;0.90;;;23.90;99.90;;;;;;5040863;28;20488;-57
2022/09/01 09:50:36;;;;;;;2.83;1.50;;;24.00;99.90;;;;;;5041740;28;20090;-59
2022/09/01 09:53:16;;;;;;;4.97;1.00;;;24.20;99.90;;;;;;5041944;28;20048;-57
2022/09/01 09:56:14;;;;;;;11.98;8.82;;;24.20;99.90;;;;;;5040647;28;20045;-56
2022/09/01 09:58:42;;;;;;;2.40;1.50;;;24.30;99.90;;;;;;5030328;28;20053;-57
2022/09/01 10:01:14;;;;;;;3.00;1.02;;;23.90;99.90;;;;;;5041788;28;20126;-58
2022/09/01 10:03:49;;;;;;;2.50;1.20;;;23.80;99.90;;;;;;5041516;28;20128;-56
2022/09/01 10:06:34;;;;;;;1.45;0.80;;;24.00;99.90;;;;;;5041105;28;20049;-57
2022/09/01 10:09:03;;;;;;;4.40;1.10;;;24.60;99.90;;;;;;5040351;28;20069;-58
2022/09/01 10:11:37;;;;;;;54.17;4.28;;;24.60;99.90;;;;;;5041703;28;20053;-58
2022/09/01 10:14:16;;;;;;;5.88;1.17;;;24.80;99.90;;;;;;5042100;28;20128;-58
2022/09/01 10:16:42;;;;;;;11.15;1.55;;;25.00;99.90;;;;;;5041687;28;20776;-58
2022/09/01 10:19:13;;;;;;;4.85;1.20;;;25.00;99.90;;;;;;5041890;28;20106;-58
2022/09/01 10:21:43;;;;;;;4.65;1.35;;;24.70;99.90;;;;;;5040937;28;20040;-58
2022/09/01 10:24:36;;;;;;;5.95;1.10;;;25.20;99.90;;;;;;5040963;28;20669;-58
2022/09/01 10:27:17;;;;;;;4.07;0.98;;;24.90;99.90;;;;;;5038561;28;20053;-58
2022/09/01 10:29:49;;;;;;;4.97;0.98;;;25.30;99.90;;;;;;5041313;28;20447;-58
2022/09/01 10:32:33;;;;;;;4.53;1.27;;;25.60;99.90;;;;;;5040684;28;20501;-60
2022/09/01 10:35:00;;;;;;;2.65;0.88;;;25.10;99.90;;;;;;5041003;28;20045;-58
2022/09/01 10:37:26;;;;;;;3.10;0.90;;;25.10;99.90;;;;;;5023354;28;20084;-58
2022/09/01 10:40:16;;;;;;;2.55;0.80;;;25.30;99.90;;;;;;5039573;28;20080;-58
2022/09/01 10:42:44;;;;;;;3.40;0.90;;;25.50;99.90;;;;;;5040841;28;20064;-58
2022/09/01 10:45:31;;;;;;;3.47;0.90;;;25.10;99.90;;;;;;5040590;28;20506;-58
2022/09/01 10:48:19;;;;;;;1.85;0.80;;;25.10;99.90;;;;;;5040608;28;20109;-60
2022/09/01 10:50:47;;;;;;;2.22;0.82;;;25.40;99.90;;;;;;5040888;28;20119;-58
2022/09/01 10:53:31;;;;;;;3.40;0.80;;;25.00;99.90;;;;;;5041017;28;20048;-57
2022/09/01 10:56:35;;;;;;;1.88;0.80;;;24.80;99.90;;;;;;5039909;28;20049;-58
2022/09/01 10:59:09;;;;;;;2.38;0.60;;;24.80;99.90;;;;;;5040329;28;20049;-58
2022/09/01 11:01:43;;;;;;;2.92;0.80;;;25.30;99.90;;;;;;5022689;28;20056;-58
2022/09/01 11:04:15;;;;;;;0.80;0.50;;;25.30;99.90;;;;;;5032089;28;20056;-57
2022/09/01 11:06:40;;;;;;;1.65;0.77;;;25.00;99.90;;;;;;5039731;28;20049;-58
2022/09/01 11:09:18;;;;;;;1.83;0.65;;;25.10;99.90;;;;;;5004929;28;20056;-58
2022/09/01 11:12:05;;;;;;;2.42;0.75;;;24.80;99.90;;;;;;5019933;28;20443;-58
2022/09/01 11:14:34;;;;;;;2.03;0.60;;;25.10;99.90;;;;;;5021409;28;20056;-58
2022/09/01 11:17:21;;;;;;;6.50;0.70;;;24.80;99.90;;;;;;5020224;28;20042;-58
2022/09/01 11:19:57;;;;;;;42.42;2.75;;;24.50;99.90;;;;;;5020690;28;20041;-57
2022/09/01 11:22:31;;;;;;;9.63;1.00;;;24.50;99.90;;;;;;5020166;28;20955;-57
2022/09/01 11:25:33;;;;;;;5.40;0.80;;;24.70;99.90;;;;;;5019677;28;20049;-58
2022/09/01 11:28:19;;;;;;;3.33;0.77;;;25.20;99.90;;;;;;5020730;28;20064;-58
2022/09/01 11:31:02;;;;;;;3.03;0.70;;;24.80;99.90;;;;;;5020429;28;20063;-58
2022/09/01 11:34:06;;;;;;;3.15;0.70;;;24.60;99.90;;;;;;5020482;28;20054;-58
2022/09/01 11:36:45;;;;;;;4.18;0.80;;;24.80;99.90;;;;;;5021150;28;20045;-57
2022/09/01 11:39:17;;;;;;;5.70;0.90;;;25.20;99.90;;;;;;5019942;28;20053;-57
2022/09/01 11:41:50;;;;;;;1.23;0.60;;;25.60;99.90;;;;;;5019960;28;20053;-58
2022/09/01 11:44:26;;;;;;;1.27;0.75;;;25.80;99.90;;;;;;5020797;28;20056;-58
2022/09/01 11:46:58;;;;;;;2.45;0.90;;;25.40;99.90;;;;;;5019724;28;20045;-58
2022/09/01 11:49:33;;;;;;;2.47;0.80;;;25.20;99.90;;;;;;5020666;28;20103;-57
2022/09/01 11:52:01;;;;;;;2.28;0.70;;;25.20;99.90;;;;;;5020615;28;20046;-58
2022/09/01 11:54:41;;;;;;;1.17;0.60;;;25.00;99.90;;;;;;5019094;28;20493;-58
2022/09/01 11:57:39;;;;;;;2.30;0.93;;;24.90;99.90;;;;;;5002815;28;20085;-58
2022/09/01 12:00:10;;;;;;;1.20;0.60;;;25.10;99.90;;;;;;4976437;28;20068;-58
2022/09/01 12:02:46;;;;;;;1.83;0.90;;;25.30;99.90;;;;;;5020218;28;20550;-59
2022/09/01 12:05:26;;;;;;;3.47;0.65;;;25.30;99.90;;;;;;5022263;28;20447;-58
2022/09/01 12:07:52;;;;;;;3.03;0.60;;;25.20;99.90;;;;;;5038835;28;20037;-58
2022/09/01 12:10:32;;;;;;;1.30;0.60;;;25.70;99.90;;;;;;5042439;28;20053;-58
2022/09/01 12:13:23;;;;;;;1.25;0.60;;;25.70;99.90;;;;;;5043710;28;20048;-58
2022/09/01 12:16:07;;;;;;;2.00;0.95;;;25.70;99.90;;;;;;5035813;28;20056;-57
2022/09/01 12:18:46;;;;;;;1.30;0.60;;;25.40;99.90;;;;;;5044419;28;20067;-57
2022/09/01 12:21:26;;;;;;;1.88;0.70;;;25.30;99.90;;;;;;5043632;28;20049;-58
2022/09/01 12:23:54;;;;;;;2.28;0.70;;;25.70;99.90;;;;;;5042763;28;20056;-58
2022/09/01 12:26:28;;;;;;;4.05;0.80;;;25.60;99.90;;;;;;5043259;28;20037;-59
2022/09/01 12:28:55;;;;;;;1.95;0.70;;;25.70;99.90;;;;;;5043726;28;20077;-59
2022/09/01 12:31:23;;;;;;;1.35;0.52;;;25.90;99.90;;;;;;5043685;28;20052;-59
2022/09/01 12:33:50;;;;;;;2.83;0.60;;;25.50;99.90;;;;;;5042693;28;20451;-57
2022/09/01 12:36:28;;;;;;;0.82;0.60;;;25.30;99.90;;;;;;5043728;28;20094;-57
2022/09/01 12:39:16;;;;;;;3.50;0.68;;;25.30;99.90;;;;;;5042512;28;20037;-57
2022/09/01 12:41:44;;;;;;;2.28;0.80;;;25.50;99.90;;;;;;5042985;28;20060;-58
2022/09/01 12:44:33;;;;;;;3.40;0.77;;;25.40;99.90;;;;;;5043575;28;20961;-57
2022/09/01 12:47:03;;;;;;;2.90;0.70;;;25.00;99.90;;;;;;5043324;28;20037;-57
2022/09/01 12:49:46;;;;;;;2.83;0.70;;;25.00;99.90;;;;;;5043259;28;20534;-58
2022/09/01 12:52:18;;;;;;;6.00;0.90;;;24.80;99.90;;;;;;5043739;28;20443;-57
2022/09/01 12:54:48;;;;;;;2.83;0.77;;;24.60;99.90;;;;;;5042214;28;20052;-57
2022/09/01 12:57:33;;;;;;;3.20;0.70;;;24.80;99.90;;;;;;5042635;28;20052;-57
2022/09/01 13:00:11;;;;;;;2.80;0.60;;;24.90;99.90;;;;;;5042921;28;20048;-58
2022/09/01 13:02:38;;;;;;;1.92;0.73;;;24.90;99.90;;;;;;5042363;28;20080;-58
2022/09/01 13:05:29;;;;;;;1.58;0.65;;;24.90;99.90;;;;;;5042799;28;20037;-57
2022/09/01 13:07:57;;;;;;;2.70;0.57;;;25.10;99.90;;;;;;5020326;28;20590;-57
2022/09/01 13:10:26;;;;;;;4.10;0.68;;;24.60;99.90;;;;;;5039980;28;20593;-57
2022/09/01 13:12:53;;;;;;;1.92;0.60;;;24.70;99.90;;;;;;5038110;28;20053;-57
2022/09/01 13:15:19;;;;;;;3.20;0.70;;;24.60;99.90;;;;;;5036699;28;20384;-57
2022/09/01 13:17:46;;;;;;;2.75;0.70;;;24.50;99.90;;;;;;5038119;28;20045;-57